createdAt,value
2022-08-07T00:01:44.588Z,15.64
2022-08-07T00:04:15.543Z,15.70
2022-08-07T00:06:51.817Z,15.69
2022-08-07T00:09:26.633Z,15.65
2022-08-07T00:12:00.790Z,15.58
2022-08-07T00:14:31.246Z,15.57
2022-08-07T00:17:00.222Z,15.61
2022-08-07T00:20:00.360Z,15.59
2022-08-07T00:22:24.611Z,15.65
2022-08-07T00:25:05.067Z,15.72
2022-08-07T00:27:51.678Z,15.72
2022-08-07T00:30:27.708Z,15.66
2022-08-07T00:32:56.460Z,15.70
2022-08-07T00:35:24.393Z,15.77
2022-08-07T00:37:52.105Z,15.82
2022-08-07T00:40:39.089Z,15.74
2022-08-07T00:43:09.626Z,15.68
2022-08-07T00:45:38.868Z,15.56
2022-08-07T00:48:09.379Z,15.49
2022-08-07T00:50:46.673Z,15.37
2022-08-07T00:53:19.562Z,15.30
2022-08-07T00:56:03.258Z,15.26
2022-08-07T00:58:32.426Z,15.32
2022-08-07T01:01:00.568Z,15.35
2022-08-07T01:03:56.054Z,15.39
2022-08-07T01:06:17.242Z,15.43
2022-08-07T01:08:52.939Z,15.47
2022-08-07T01:12:24.069Z,15.51
2022-08-07T01:14:11.179Z,15.48
2022-08-07T01:16:39.789Z,15.40
2022-08-07T01:19:18.979Z,15.30
2022-08-07T01:21:53.424Z,15.43
2022-08-07T01:24:23.683Z,15.49
2022-08-07T01:26:52.684Z,15.43
2022-08-07T01:29:27.750Z,15.41
2022-08-07T01:31:55.940Z,15.38
2022-08-07T01:34:30.592Z,15.45
2022-08-07T01:37:01.426Z,15.37
2022-08-07T01:39:40.403Z,15.32
2022-08-07T01:42:38.025Z,15.32
2022-08-07T01:44:57.234Z,15.31
2022-08-07T01:48:30.057Z,15.21
2022-08-07T01:50:14.171Z,15.20
2022-08-07T01:52:49.410Z,15.19
2022-08-07T01:55:25.140Z,15.18
2022-08-07T01:58:06.819Z,15.17
2022-08-07T02:00:49.258Z,15.17
2022-08-07T02:03:31.990Z,15.14
2022-08-07T02:06:31.458Z,15.08
2022-08-07T02:09:05.122Z,14.97
2022-08-07T02:12:02.705Z,14.94
2022-08-07T02:14:36.348Z,14.84
2022-08-07T02:17:09.119Z,14.78
2022-08-07T02:20:07.525Z,14.69
2022-08-07T02:22:26.922Z,14.69
2022-08-07T02:24:59.028Z,14.67
2022-08-07T02:27:34.319Z,14.69
2022-08-07T02:30:07.216Z,14.76
2022-08-07T02:32:38.752Z,14.84
2022-08-07T02:36:27.055Z,14.89
2022-08-07T02:38:22.739Z,15.00
2022-08-07T02:40:59.201Z,14.98
2022-08-07T02:43:29.260Z,15.02
2022-08-07T02:46:02.796Z,15.08
2022-08-07T02:48:31.573Z,15.19
2022-08-07T02:51:02.778Z,15.15
2022-08-07T02:53:38.809Z,15.19
2022-08-07T02:56:21.185Z,15.14
2022-08-07T02:58:53.951Z,15.13
2022-08-07T03:01:35.283Z,15.06
2022-08-07T03:04:07.821Z,15.06
2022-08-07T03:06:40.693Z,14.85
2022-08-07T03:09:11.255Z,14.78
2022-08-07T03:11:52.378Z,14.81
2022-08-07T03:14:27.834Z,14.89
2022-08-07T03:16:56.630Z,14.80
2022-08-07T03:19:28.777Z,14.83
2022-08-07T03:21:57.525Z,14.91
2022-08-07T03:24:27.926Z,14.92
2022-08-07T03:27:01.927Z,14.96
2022-08-07T03:29:36.855Z,14.80
2022-08-07T03:32:13.548Z,14.67
2022-08-07T03:34:47.454Z,14.73
2022-08-07T03:37:32.595Z,14.78
2022-08-07T03:40:15.257Z,14.67
2022-08-07T03:42:45.966Z,14.67
2022-08-07T03:45:30.046Z,14.55
2022-08-07T03:47:59.444Z,14.52
2022-08-07T03:50:28.756Z,14.65
2022-08-07T03:52:59.057Z,14.70
2022-08-07T03:55:58.172Z,14.79
2022-08-07T03:59:06.730Z,14.87
2022-08-07T04:01:11.458Z,14.87
2022-08-07T04:03:53.106Z,14.75
2022-08-07T04:06:37.831Z,14.70
2022-08-07T04:09:06.289Z,14.87
2022-08-07T04:12:27.668Z,14.92
2022-08-07T04:14:37.261Z,15.03
2022-08-07T04:17:20.603Z,14.98
2022-08-07T04:19:52.211Z,15.11
2022-08-07T04:22:23.143Z,15.11
2022-08-07T04:24:51.414Z,15.11
2022-08-07T04:27:25.181Z,15.13
2022-08-07T04:30:01.260Z,15.11
2022-08-07T04:32:34.528Z,15.09
2022-08-07T04:35:03.931Z,15.08
2022-08-07T04:37:40.359Z,15.09
2022-08-07T04:40:22.345Z,15.10
2022-08-07T04:42:54.458Z,15.07
2022-08-07T04:45:57.879Z,15.10
2022-08-07T04:48:44.613Z,15.14
2022-08-07T04:51:20.561Z,15.19
2022-08-07T04:54:06.248Z,15.15
2022-08-07T04:58:14.030Z,15.31
2022-08-07T05:00:11.510Z,15.36
2022-08-07T05:02:29.229Z,15.36
2022-08-07T05:05:11.887Z,15.43
2022-08-07T05:07:59.337Z,15.48
2022-08-07T05:10:34.307Z,15.54
2022-08-07T05:14:44.284Z,15.55
2022-08-07T05:15:57.377Z,15.72
2022-08-07T05:18:30.265Z,15.69
2022-08-07T05:21:04.017Z,15.80
2022-08-07T05:23:37.127Z,15.82
2022-08-07T05:26:15.630Z,15.93
2022-08-07T05:28:50.282Z,15.97
2022-08-07T05:31:21.098Z,16.03
2022-08-07T05:34:04.681Z,15.99
2022-08-07T05:36:35.790Z,16.07
2022-08-07T05:40:04.973Z,16.08
2022-08-07T05:42:01.138Z,16.17
2022-08-07T05:44:36.293Z,16.27
2022-08-07T05:47:18.702Z,16.27
2022-08-07T05:49:49.669Z,16.32
2022-08-07T05:52:20.130Z,16.41
2022-08-07T05:54:55.331Z,16.36
2022-08-07T05:57:30.398Z,16.56
2022-08-07T06:00:03.190Z,16.67
2022-08-07T06:02:36.386Z,16.74
2022-08-07T06:05:10.778Z,16.76
2022-08-07T06:08:13.835Z,16.82
2022-08-07T06:10:32.784Z,16.90
2022-08-07T06:13:02.245Z,16.95
2022-08-07T06:15:39.439Z,17.08
2022-08-07T06:18:12.291Z,17.24
2022-08-07T06:20:49.622Z,17.20
2022-08-07T06:23:46.357Z,17.26
2022-08-07T06:26:06.768Z,17.32
2022-08-07T06:28:34.797Z,17.39
2022-08-07T06:31:02.328Z,17.56
2022-08-07T06:33:33.040Z,17.53
2022-08-07T06:36:13.194Z,17.53
2022-08-07T06:38:51.314Z,17.61
2022-08-07T06:42:00.358Z,17.67
2022-08-07T06:44:19.948Z,17.76
2022-08-07T06:46:53.613Z,17.87
2022-08-07T06:49:36.302Z,17.87
2022-08-07T06:52:31.672Z,17.99
2022-08-07T06:55:32.466Z,18.10
2022-08-07T06:57:57.177Z,18.18
2022-08-07T07:00:28.119Z,18.23
2022-08-07T07:02:58.165Z,18.33
2022-08-07T07:06:03.042Z,18.35
2022-08-07T07:08:26.363Z,18.41
2022-08-07T07:10:57.346Z,18.48
2022-08-07T07:13:55.348Z,18.58
2022-08-07T07:16:22.932Z,18.63
2022-08-07T07:18:58.298Z,18.71
2022-08-07T07:22:04.281Z,18.74
2022-08-07T07:24:19.836Z,18.78
2022-08-07T07:26:49.724Z,18.86
2022-08-07T07:29:57.298Z,18.97
2022-08-07T07:32:15.169Z,19.04
2022-08-07T07:34:46.429Z,19.09
2022-08-07T07:37:21.955Z,19.17
2022-08-07T07:40:10.203Z,19.23
2022-08-07T07:42:47.347Z,19.28
2022-08-07T07:46:36.752Z,19.31
2022-08-07T07:48:24.050Z,19.36
2022-08-07T07:51:07.483Z,19.30
2022-08-07T07:53:44.394Z,19.36
2022-08-07T07:56:30.285Z,19.40
2022-08-07T07:59:01.667Z,19.53
2022-08-07T08:02:02.170Z,19.56
2022-08-07T08:04:25.921Z,19.56
2022-08-07T08:06:55.917Z,19.63
2022-08-07T08:09:29.434Z,19.80
2022-08-07T08:12:05.098Z,19.93
2022-08-07T08:14:34.383Z,20.05
2022-08-07T08:17:32.284Z,20.11
2022-08-07T08:20:17.399Z,20.22
2022-08-07T08:23:03.524Z,20.36
2022-08-07T08:25:56.217Z,20.39
2022-08-07T08:28:38.260Z,20.26
2022-08-07T08:31:15.733Z,20.42
2022-08-07T08:33:49.604Z,20.55
2022-08-07T08:36:29.952Z,20.59
2022-08-07T08:39:02.239Z,20.66
2022-08-07T08:41:58.853Z,20.76
2022-08-07T08:44:31.749Z,20.90
2022-08-07T08:47:09.787Z,21.07
2022-08-07T08:49:46.912Z,21.16
2022-08-07T08:52:40.626Z,21.15
2022-08-07T08:55:54.585Z,21.29
2022-08-07T08:58:24.805Z,21.41
2022-08-07T09:01:15.789Z,21.47
2022-08-07T09:03:56.826Z,21.67
2022-08-07T09:06:49.575Z,21.90
2022-08-07T09:09:36.505Z,21.91
2022-08-07T09:12:19.933Z,22.04
2022-08-07T09:16:24.602Z,22.27
2022-08-07T09:18:08.098Z,22.41
2022-08-07T09:20:58.453Z,22.54
2022-08-07T09:24:29.297Z,22.64
2022-08-07T09:26:40.320Z,22.72
2022-08-07T09:30:04.271Z,22.79
2022-08-07T09:32:23.739Z,22.93
2022-08-07T09:36:05.062Z,23.08
2022-08-07T09:38:10.437Z,23.24
2022-08-07T09:40:50.222Z,23.33
2022-08-07T09:44:03.470Z,23.45
2022-08-07T09:47:51.998Z,23.66
2022-08-07T09:50:01.045Z,23.57
2022-08-07T09:52:34.526Z,23.76
2022-08-07T09:55:29.038Z,23.89
2022-08-07T09:58:15.020Z,24.02
2022-08-07T10:00:56.437Z,24.17
2022-08-07T10:04:06.579Z,24.31
2022-08-07T10:06:55.697Z,24.42
2022-08-07T10:10:00.782Z,24.50
2022-08-07T10:12:53.632Z,24.58
2022-08-07T10:15:50.770Z,24.78
2022-08-07T10:18:35.354Z,24.74
2022-08-07T10:21:50.650Z,24.82
2022-08-07T10:24:39.648Z,24.73
2022-08-07T10:27:30.278Z,24.87
2022-08-07T10:30:17.377Z,25.12
2022-08-07T10:33:01.214Z,25.23
2022-08-07T10:35:57.505Z,25.22
2022-08-07T10:38:48.142Z,25.18
2022-08-07T10:41:51.399Z,25.27
2022-08-07T10:44:37.394Z,25.35
2022-08-07T10:47:31.133Z,25.45
2022-08-07T10:50:15.659Z,25.53
2022-08-07T10:53:05.192Z,25.56
2022-08-07T10:55:46.275Z,25.68
2022-08-07T10:58:36.583Z,25.67
2022-08-07T11:01:35.836Z,25.85
2022-08-07T11:04:31.802Z,25.88
2022-08-07T11:07:15.082Z,25.87
2022-08-07T11:10:07.948Z,25.89
2022-08-07T11:12:46.080Z,25.94
2022-08-07T11:15:31.654Z,25.99
2022-08-07T11:18:06.910Z,25.88
2022-08-07T11:20:44.316Z,25.85
2022-08-07T11:23:30.576Z,26.04
2022-08-07T11:26:13.095Z,26.31
2022-08-07T11:28:53.446Z,26.33
2022-08-07T11:31:30.410Z,26.47
2022-08-07T11:34:10.212Z,26.37
2022-08-07T11:36:46.012Z,26.26
2022-08-07T11:39:39.668Z,26.35
2022-08-07T11:42:23.028Z,26.60
2022-08-07T11:45:12.400Z,26.53
2022-08-07T11:47:59.571Z,26.79
2022-08-07T11:50:57.470Z,26.95
2022-08-07T11:54:00.747Z,26.99
2022-08-07T11:56:46.221Z,27.19
2022-08-07T12:00:10.066Z,26.83
2022-08-07T12:02:52.226Z,26.81
2022-08-07T12:05:47.651Z,26.92
2022-08-07T12:08:31.380Z,27.05
2022-08-07T12:11:21.102Z,27.22
2022-08-07T12:13:54.781Z,27.35
2022-08-07T12:16:30.451Z,27.06
2022-08-07T12:19:07.567Z,27.13
2022-08-07T12:22:36.124Z,27.30
2022-08-07T12:24:40.181Z,27.52
2022-08-07T12:27:16.429Z,27.71
2022-08-07T12:29:52.969Z,27.82
2022-08-07T12:32:30.773Z,27.87
2022-08-07T12:35:01.117Z,27.83
2022-08-07T12:38:10.109Z,27.69
2022-08-07T12:40:46.538Z,27.87
2022-08-07T12:43:10.435Z,27.73
2022-08-07T12:45:44.430Z,27.90
2022-08-07T12:48:41.642Z,27.82
2022-08-07T12:51:20.533Z,27.79
2022-08-07T12:54:36.496Z,27.80
2022-08-07T12:56:55.035Z,27.82
2022-08-07T12:59:32.988Z,27.85
2022-08-07T13:02:26.631Z,27.96
2022-08-07T13:06:01.827Z,28.08
2022-08-07T13:08:18.767Z,28.32
2022-08-07T13:10:59.275Z,28.28
2022-08-07T13:13:48.559Z,28.35
2022-08-07T13:16:30.512Z,28.43
2022-08-07T13:19:07.807Z,28.29
2022-08-07T13:21:57.524Z,27.90
2022-08-07T13:24:43.875Z,28.17
2022-08-07T13:28:05.773Z,28.14
2022-08-07T13:30:19.498Z,28.21
2022-08-07T13:34:14.424Z,28.09
2022-08-07T13:36:05.292Z,28.35
2022-08-07T13:38:42.085Z,28.45
2022-08-07T13:41:18.939Z,28.62
2022-08-07T13:43:52.503Z,28.72
2022-08-07T13:46:33.801Z,28.86
2022-08-07T13:49:08.885Z,28.56
2022-08-07T13:52:04.694Z,28.38
2022-08-07T13:54:41.026Z,28.17
2022-08-07T13:57:24.055Z,28.50
2022-08-07T13:59:55.686Z,28.64
2022-08-07T14:02:29.719Z,28.51
2022-08-07T14:05:04.883Z,28.59
2022-08-07T14:07:38.212Z,28.59
2022-08-07T14:10:28.222Z,28.82
2022-08-07T14:13:00.544Z,28.89
2022-08-07T14:15:35.315Z,28.74
2022-08-07T14:18:23.969Z,28.68
2022-08-07T14:21:08.486Z,28.87
2022-08-07T14:24:00.860Z,28.89
2022-08-07T14:26:38.393Z,28.95
2022-08-07T14:30:06.367Z,29.00
2022-08-07T14:32:02.694Z,28.75
2022-08-07T14:34:34.178Z,28.77
2022-08-07T14:37:23.725Z,28.87
2022-08-07T14:40:17.598Z,28.49
2022-08-07T14:43:55.757Z,28.71
2022-08-07T14:45:49.357Z,28.83
2022-08-07T14:48:20.976Z,28.82
2022-08-07T14:50:53.228Z,28.77
2022-08-07T14:54:03.574Z,29.06
2022-08-07T14:56:13.933Z,29.10
2022-08-07T14:59:04.433Z,28.74
2022-08-07T15:01:51.465Z,28.82
2022-08-07T15:04:22.584Z,28.83
2022-08-07T15:06:54.881Z,29.04
2022-08-07T15:09:57.234Z,28.97
2022-08-07T15:12:26.049Z,29.07
2022-08-07T15:17:59.117Z,28.75
2022-08-07T15:25:02.278Z,28.71
2022-08-07T15:26:22.797Z,28.61
2022-08-07T15:30:02.352Z,28.72
2022-08-07T15:34:50.477Z,28.99
2022-08-07T15:38:04.395Z,28.92
2022-08-07T15:40:33.929Z,28.81
2022-08-07T15:43:05.655Z,28.91
2022-08-07T15:45:56.340Z,28.84
2022-08-07T15:48:31.518Z,28.81
2022-08-07T15:53:57.361Z,28.75
2022-08-07T15:56:40.532Z,28.67
2022-08-07T15:59:16.582Z,28.56
2022-08-07T16:02:01.669Z,28.40
2022-08-07T16:04:34.019Z,28.48
2022-08-07T16:07:05.729Z,28.34
2022-08-07T16:09:58.086Z,28.18
2022-08-07T16:12:39.118Z,28.25
2022-08-07T16:15:55.146Z,27.86
2022-08-07T16:18:49.836Z,27.74
2022-08-07T16:22:01.498Z,27.70
2022-08-07T16:24:33.733Z,27.31
2022-08-07T16:27:17.835Z,27.25
2022-08-07T16:30:29.822Z,27.27
2022-08-07T16:34:02.600Z,27.15
2022-08-07T16:36:19.962Z,27.11
2022-08-07T16:39:04.307Z,27.05
2022-08-07T16:41:54.129Z,26.86
2022-08-07T16:45:15.160Z,26.67
2022-08-07T16:48:13.546Z,26.44
2022-08-07T16:51:20.760Z,26.52
2022-08-07T16:54:19.104Z,26.47
2022-08-07T16:57:03.850Z,26.37
2022-08-07T16:59:47.136Z,26.55
2022-08-07T17:02:51.515Z,26.42
2022-08-07T17:06:19.485Z,26.36
2022-08-07T17:09:09.914Z,26.42
2022-08-07T17:12:05.398Z,26.37
2022-08-07T17:14:42.990Z,26.73
2022-08-07T17:17:44.171Z,26.77
2022-08-07T17:20:20.914Z,26.93
2022-08-07T17:22:58.618Z,27.20
2022-08-07T17:25:51.293Z,27.18
2022-08-07T17:28:31.314Z,27.15
2022-08-07T17:31:16.542Z,26.99
2022-08-07T17:34:15.545Z,26.82
2022-08-07T17:36:57.766Z,26.68
2022-08-07T17:39:58.206Z,26.63
2022-08-07T17:42:59.144Z,26.37
2022-08-07T17:45:31.508Z,26.38
2022-08-07T17:48:08.659Z,26.27
2022-08-07T17:51:00.000Z,26.21
2022-08-07T17:54:00.852Z,26.11
2022-08-07T17:56:30.291Z,26.13
2022-08-07T17:59:09.849Z,26.09
2022-08-07T18:01:48.561Z,25.98
2022-08-07T18:04:31.083Z,25.96
2022-08-07T18:07:20.113Z,25.89
2022-08-07T18:10:07.325Z,25.88
2022-08-07T18:13:06.763Z,25.78
2022-08-07T18:15:43.750Z,25.71
2022-08-07T18:18:46.770Z,25.70
2022-08-07T18:21:42.108Z,25.54
2022-08-07T18:24:08.838Z,25.52
2022-08-07T18:26:57.847Z,25.51
2022-08-07T18:30:07.189Z,25.45
2022-08-07T18:33:37.659Z,25.38
2022-08-07T18:36:17.322Z,25.22
2022-08-07T18:40:08.090Z,25.18
2022-08-07T18:42:12.980Z,25.14
2022-08-07T18:45:44.771Z,25.07
2022-08-07T18:48:00.711Z,25.05
2022-08-07T18:50:45.303Z,24.96
2022-08-07T18:53:17.451Z,24.77
2022-08-07T18:56:06.151Z,24.76
2022-08-07T18:58:52.010Z,24.59
2022-08-07T19:02:33.049Z,24.51
2022-08-07T19:04:57.494Z,24.43
2022-08-07T19:07:51.945Z,24.31
2022-08-07T19:10:49.978Z,24.31
2022-08-07T19:13:25.115Z,24.12
2022-08-07T19:17:00.624Z,24.04
2022-08-07T19:18:59.635Z,23.91
2022-08-07T19:21:46.567Z,23.76
2022-08-07T19:24:30.461Z,23.68
2022-08-07T19:29:03.358Z,23.52
2022-08-07T19:31:04.541Z,23.47
2022-08-07T19:32:47.492Z,23.36
2022-08-07T19:35:22.469Z,23.32
2022-08-07T19:37:57.965Z,23.42
2022-08-07T19:40:31.846Z,23.45
2022-08-07T19:43:09.592Z,23.29
2022-08-07T19:46:07.307Z,23.09
2022-08-07T19:48:42.949Z,22.87
2022-08-07T19:51:20.567Z,22.77
2022-08-07T19:54:29.806Z,22.53
2022-08-07T19:58:01.511Z,22.27
2022-08-07T19:59:42.463Z,22.09
2022-08-07T20:02:19.630Z,21.95
2022-08-07T20:04:56.197Z,21.86
2022-08-07T20:07:47.089Z,21.77
2022-08-07T20:10:35.746Z,21.80
2022-08-07T20:13:22.411Z,21.58
2022-08-07T20:15:53.940Z,21.56
2022-08-07T20:18:32.607Z,21.44
2022-08-07T20:21:14.554Z,21.39
2022-08-07T20:23:54.259Z,21.31
2022-08-07T20:26:32.187Z,21.21
2022-08-07T20:29:10.681Z,21.14
2022-08-07T20:31:52.805Z,21.11
2022-08-07T20:34:49.355Z,21.10
2022-08-07T20:37:15.794Z,20.91
2022-08-07T20:40:02.756Z,21.00
2022-08-07T20:42:33.555Z,20.92
2022-08-07T20:45:01.970Z,20.90
2022-08-07T20:47:56.895Z,20.99
2022-08-07T20:50:26.585Z,20.94
2022-08-07T20:52:56.317Z,20.89
2022-08-07T20:55:25.615Z,20.87
2022-08-07T20:58:04.057Z,20.69
2022-08-07T21:00:45.933Z,20.66
2022-08-07T21:03:23.111Z,20.65
2022-08-07T21:05:57.729Z,20.50
2022-08-07T21:08:38.079Z,20.43
2022-08-07T21:11:12.381Z,20.36
2022-08-07T21:14:20.098Z,20.22
2022-08-07T21:16:56.110Z,20.35
2022-08-07T21:19:32.080Z,20.36
2022-08-07T21:22:19.517Z,20.28
2022-08-07T21:25:04.703Z,20.20
2022-08-07T21:27:53.727Z,20.19
2022-08-07T21:30:29.800Z,20.24
2022-08-07T21:33:14.065Z,20.12
2022-08-07T21:36:06.003Z,20.10
2022-08-07T21:38:50.159Z,20.06
2022-08-07T21:41:37.754Z,20.10
2022-08-07T21:44:14.616Z,20.09
2022-08-07T21:47:00.752Z,20.08
2022-08-07T21:50:00.838Z,20.11
2022-08-07T21:52:33.234Z,20.08
2022-08-07T21:55:10.838Z,19.98
2022-08-07T21:57:52.764Z,19.77
2022-08-07T22:00:25.239Z,19.78
2022-08-07T22:03:05.636Z,19.72
2022-08-07T22:05:45.614Z,19.56
2022-08-07T22:08:19.877Z,19.42
2022-08-07T22:10:50.882Z,19.38
2022-08-07T22:13:24.530Z,19.35
2022-08-07T22:16:43.355Z,19.19
2022-08-07T22:19:08.193Z,19.15
2022-08-07T22:22:01.916Z,19.05
2022-08-07T22:24:35.311Z,18.97
2022-08-07T22:27:10.142Z,18.95
2022-08-07T22:29:48.188Z,18.92
2022-08-07T22:32:25.173Z,18.82
2022-08-07T22:34:55.694Z,18.80
2022-08-07T22:38:03.002Z,18.81
2022-08-07T22:40:28.069Z,18.90
2022-08-07T22:43:02.709Z,18.88
2022-08-07T22:46:21.868Z,18.81
2022-08-07T22:49:02.056Z,18.72
2022-08-07T22:52:01.611Z,18.65
2022-08-07T22:54:48.989Z,18.66
2022-08-07T22:57:45.861Z,18.65
2022-08-07T23:00:17.786Z,18.68
2022-08-07T23:03:02.303Z,18.66
2022-08-07T23:06:07.328Z,18.48
2022-08-07T23:08:54.283Z,18.49
2022-08-07T23:11:44.289Z,18.42
2022-08-07T23:14:31.606Z,18.41
2022-08-07T23:17:20.220Z,18.27
2022-08-07T23:20:15.667Z,18.27
2022-08-07T23:22:56.781Z,18.17
2022-08-07T23:25:38.854Z,18.22
2022-08-07T23:28:28.992Z,18.23
2022-08-07T23:31:13.890Z,18.17
2022-08-07T23:34:35.741Z,18.12
2022-08-07T23:37:20.057Z,18.11
2022-08-07T23:40:04.474Z,17.97
2022-08-07T23:42:53.300Z,18.02
2022-08-07T23:45:50.130Z,18.01
2022-08-07T23:48:30.252Z,17.91
2022-08-07T23:51:03.190Z,17.92
2022-08-07T23:53:51.899Z,17.87
2022-08-07T23:56:28.130Z,17.91
2022-08-07T23:59:10.468Z,17.82
